sensor_id;sensor_type;location;lat;lon;timestamp;P1;durP1;ratioP1;P2;durP2;ratioP2
60368;SDS011;46208;44.634;10.492;2022-08-19T00:02:41;4.57;;;3.15;;
60368;SDS011;46208;44.634;10.492;2022-08-19T00:05:46;6.50;;;3.58;;
60368;SDS011;46208;44.634;10.492;2022-08-19T00:08:50;5.13;;;3.55;;
60368;SDS011;46208;44.634;10.492;2022-08-19T00:11:54;5.65;;;3.50;;
60368;SDS011;46208;44.634;10.492;2022-08-19T00:14:59;4.05;;;3.13;;
60368;SDS011;46208;44.634;10.492;2022-08-19T00:18:02;5.75;;;4.13;;
60368;SDS011;46208;44.634;10.492;2022-08-19T00:21:06;7.25;;;3.17;;
60368;SDS011;46208;44.634;10.492;2022-08-19T00:24:13;5.40;;;2.95;;
60368;SDS011;46208;44.634;10.492;2022-08-19T00:27:18;3.88;;;2.53;;
60368;SDS011;46208;44.634;10.492;2022-08-19T00:30:21;4.22;;;3.40;;
60368;SDS011;46208;44.634;10.492;2022-08-19T00:33:25;9.63;;;4.03;;
60368;SDS011;46208;44.634;10.492;2022-08-19T00:36:29;5.57;;;3.90;;
60368;SDS011;46208;44.634;10.492;2022-08-19T00:39:35;6.18;;;3.85;;
60368;SDS011;46208;44.634;10.492;2022-08-19T00:42:38;4.22;;;3.00;;
60368;SDS011;46208;44.634;10.492;2022-08-19T00:45:42;5.07;;;3.50;;
60368;SDS011;46208;44.634;10.492;2022-08-19T00:48:46;5.00;;;3.15;;
60368;SDS011;46208;44.634;10.492;2022-08-19T00:51:52;3.80;;;2.95;;
60368;SDS011;46208;44.634;10.492;2022-08-19T00:54:58;5.00;;;3.38;;
60368;SDS011;46208;44.634;10.492;2022-08-19T00:58:04;4.05;;;2.35;;
60368;SDS011;46208;44.634;10.492;2022-08-19T01:01:10;3.03;;;2.65;;
60368;SDS011;46208;44.634;10.492;2022-08-19T01:04:14;4.78;;;2.70;;
60368;SDS011;46208;44.634;10.492;2022-08-19T01:07:18;5.60;;;3.53;;
60368;SDS011;46208;44.634;10.492;2022-08-19T01:10:23;4.20;;;3.25;;
60368;SDS011;46208;44.634;10.492;2022-08-19T01:13:30;3.03;;;2.72;;
60368;SDS011;46208;44.634;10.492;2022-08-19T01:16:35;3.13;;;2.35;;
60368;SDS011;46208;44.634;10.492;2022-08-19T01:19:41;4.63;;;3.13;;
60368;SDS011;46208;44.634;10.492;2022-08-19T01:22:49;4.38;;;3.28;;
60368;SDS011;46208;44.634;10.492;2022-08-19T01:25:57;4.78;;;3.05;;
60368;SDS011;46208;44.634;10.492;2022-08-19T01:29:01;6.20;;;3.33;;
60368;SDS011;46208;44.634;10.492;2022-08-19T01:32:05;5.45;;;3.58;;
60368;SDS011;46208;44.634;10.492;2022-08-19T01:35:09;4.90;;;3.20;;
60368;SDS011;46208;44.634;10.492;2022-08-19T01:38:22;4.10;;;3.47;;
60368;SDS011;46208;44.634;10.492;2022-08-19T01:41:28;3.85;;;2.90;;
60368;SDS011;46208;44.634;10.492;2022-08-19T01:44:32;4.50;;;3.05;;
60368;SDS011;46208;44.634;10.492;2022-08-19T01:47:37;4.53;;;3.05;;
60368;SDS011;46208;44.634;10.492;2022-08-19T01:50:41;5.38;;;3.35;;
60368;SDS011;46208;44.634;10.492;2022-08-19T01:53:48;4.88;;;3.15;;
60368;SDS011;46208;44.634;10.492;2022-08-19T01:56:53;4.80;;;3.35;;
60368;SDS011;46208;44.634;10.492;2022-08-19T02:00:02;4.43;;;3.22;;
60368;SDS011;46208;44.634;10.492;2022-08-19T02:03:15;4.75;;;3.38;;
60368;SDS011;46208;44.634;10.492;2022-08-19T02:06:19;4.30;;;3.08;;
60368;SDS011;46208;44.634;10.492;2022-08-19T02:09:23;4.70;;;1.95;;
60368;SDS011;46208;44.634;10.492;2022-08-19T02:12:27;4.30;;;2.65;;
60368;SDS011;46208;44.634;10.492;2022-08-19T02:15:30;3.70;;;2.00;;
60368;SDS011;46208;44.634;10.492;2022-08-19T02:18:35;3.25;;;2.08;;
60368;SDS011;46208;44.634;10.492;2022-08-19T02:21:39;2.55;;;1.88;;
60368;SDS011;46208;44.634;10.492;2022-08-19T02:24:42;2.38;;;1.83;;
60368;SDS011;46208;44.634;10.492;2022-08-19T02:27:46;4.00;;;2.20;;
60368;SDS011;46208;44.634;10.492;2022-08-19T02:30:50;2.42;;;1.70;;
60368;SDS011;46208;44.634;10.492;2022-08-19T02:33:55;4.18;;;2.03;;
60368;SDS011;46208;44.634;10.492;2022-08-19T02:36:59;2.00;;;1.65;;
60368;SDS011;46208;44.634;10.492;2022-08-19T02:40:03;3.95;;;2.00;;
60368;SDS011;46208;44.634;10.492;2022-08-19T02:43:08;2.22;;;1.90;;
60368;SDS011;46208;44.634;10.492;2022-08-19T02:46:13;4.10;;;2.33;;
60368;SDS011;46208;44.634;10.492;2022-08-19T02:49:18;2.47;;;1.60;;
60368;SDS011;46208;44.634;10.492;2022-08-19T02:52:22;4.57;;;2.17;;
60368;SDS011;46208;44.634;10.492;2022-08-19T02:55:26;1.67;;;1.58;;
60368;SDS011;46208;44.634;10.492;2022-08-19T02:58:30;1.85;;;1.70;;
60368;SDS011;46208;44.634;10.492;2022-08-19T03:01:33;1.25;;;0.95;;
60368;SDS011;46208;44.634;10.492;2022-08-19T03:04:38;3.30;;;1.45;;
60368;SDS011;46208;44.634;10.492;2022-08-19T03:07:41;1.77;;;1.38;;
60368;SDS011;46208;44.634;10.492;2022-08-19T03:10:46;2.15;;;1.10;;
60368;SDS011;46208;44.634;10.492;2022-08-19T03:13:50;1.50;;;1.17;;
60368;SDS011;46208;44.634;10.492;2022-08-19T03:16:54;3.72;;;0.95;;
60368;SDS011;46208;44.634;10.492;2022-08-19T03:19:58;1.33;;;1.00;;
60368;SDS011;46208;44.634;10.492;2022-08-19T03:23:02;1.20;;;0.60;;
60368;SDS011;46208;44.634;10.492;2022-08-19T03:26:07;1.42;;;0.80;;
60368;SDS011;46208;44.634;10.492;2022-08-19T03:29:11;2.65;;;0.80;;
60368;SDS011;46208;44.634;10.492;2022-08-19T03:32:15;1.35;;;1.13;;
60368;SDS011;46208;44.634;10.492;2022-08-19T03:35:19;1.92;;;0.80;;
60368;SDS011;46208;44.634;10.492;2022-08-19T03:38:23;1.27;;;0.70;;
60368;SDS011;46208;44.634;10.492;2022-08-19T03:41:28;1.90;;;0.80;;
60368;SDS011;46208;44.634;10.492;2022-08-19T03:44:34;1.52;;;0.93;;
60368;SDS011;46208;44.634;10.492;2022-08-19T03:47:40;1.27;;;0.52;;
60368;SDS011;46208;44.634;10.492;2022-08-19T03:50:44;0.68;;;0.50;;
60368;SDS011;46208;44.634;10.492;2022-08-19T03:53:48;0.93;;;0.80;;
60368;SDS011;46208;44.634;10.492;2022-08-19T03:56:52;0.70;;;0.70;;
60368;SDS011;46208;44.634;10.492;2022-08-19T03:59:57;1.58;;;0.70;;
60368;SDS011;46208;44.634;10.492;2022-08-19T04:03:01;0.40;;;0.40;;
60368;SDS011;46208;44.634;10.492;2022-08-19T04:06:12;3.30;;;0.85;;
60368;SDS011;46208;44.634;10.492;2022-08-19T04:09:36;0.68;;;0.50;;
60368;SDS011;46208;44.634;10.492;2022-08-19T04:12:40;0.63;;;0.63;;
60368;SDS011;46208;44.634;10.492;2022-08-19T04:15:44;2.97;;;0.70;;
60368;SDS011;46208;44.634;10.492;2022-08-19T04:18:49;0.88;;;0.63;;
60368;SDS011;46208;44.634;10.492;2022-08-19T04:21:54;0.90;;;0.57;;
60368;SDS011;46208;44.634;10.492;2022-08-19T04:24:58;2.03;;;0.85;;
60368;SDS011;46208;44.634;10.492;2022-08-19T04:28:02;1.00;;;0.63;;
60368;SDS011;46208;44.634;10.492;2022-08-19T04:31:05;0.82;;;0.80;;
60368;SDS011;46208;44.634;10.492;2022-08-19T04:34:11;0.60;;;0.40;;
60368;SDS011;46208;44.634;10.492;2022-08-19T04:37:16;0.88;;;0.60;;
60368;SDS011;46208;44.634;10.492;2022-08-19T04:40:20;1.70;;;0.65;;
60368;SDS011;46208;44.634;10.492;2022-08-19T04:43:42;0.30;;;0.30;;
60368;SDS011;46208;44.634;10.492;2022-08-19T04:46:50;0.43;;;0.30;;
60368;SDS011;46208;44.634;10.492;2022-08-19T04:49:54;0.10;;;0.10;;
60368;SDS011;46208;44.634;10.492;2022-08-19T04:52:58;0.40;;;0.40;;
60368;SDS011;46208;44.634;10.492;2022-08-19T04:56:10;0.43;;;0.40;;
60368;SDS011;46208;44.634;10.492;2022-08-19T04:59:15;0.73;;;0.30;;
60368;SDS011;46208;44.634;10.492;2022-08-19T05:02:20;0.10;;;0.10;;
60368;SDS011;46208;44.634;10.492;2022-08-19T05:05:26;0.30;;;0.30;;
60368;SDS011;46208;44.634;10.492;2022-08-19T05:08:30;0.28;;;0.28;;
60368;SDS011;46208;44.634;10.492;2022-08-19T05:11:35;0.10;;;0.10;;
60368;SDS011;46208;44.634;10.492;2022-08-19T05:14:41;0.10;;;0.10;;
60368;SDS011;46208;44.634;10.492;2022-08-19T05:17:45;0.20;;;0.20;;
60368;SDS011;46208;44.634;10.492;2022-08-19T05:21:09;0.30;;;0.30;;
60368;SDS011;46208;44.634;10.492;2022-08-19T05:24:33;0.40;;;0.40;;
60368;SDS011;46208;44.634;10.492;2022-08-19T05:27:40;0.45;;;0.38;;
60368;SDS011;46208;44.634;10.492;2022-08-19T05:30:44;1.88;;;0.45;;
60368;SDS011;46208;44.634;10.492;2022-08-19T05:33:48;1.10;;;0.40;;
60368;SDS011;46208;44.634;10.492;2022-08-19T05:36:54;0.20;;;0.20;;
60368;SDS011;46208;44.634;10.492;2022-08-19T05:40:00;0.20;;;0.20;;
60368;SDS011;46208;44.634;10.492;2022-08-19T05:43:04;0.43;;;0.15;;
60368;SDS011;46208;44.634;10.492;2022-08-19T05:46:15;1.52;;;0.35;;
60368;SDS011;46208;44.634;10.492;2022-08-19T05:49:21;0.28;;;0.28;;
60368;SDS011;46208;44.634;10.492;2022-08-19T05:52:25;0.40;;;0.20;;
60368;SDS011;46208;44.634;10.492;2022-08-19T05:55:31;0.35;;;0.35;;
60368;SDS011;46208;44.634;10.492;2022-08-19T05:58:36;0.65;;;0.10;;
60368;SDS011;46208;44.634;10.492;2022-08-19T06:01:42;0.43;;;0.20;;
60368;SDS011;46208;44.634;10.492;2022-08-19T06:04:48;0.32;;;0.28;;
60368;SDS011;46208;44.634;10.492;2022-08-19T06:07:53;1.75;;;0.22;;
60368;SDS011;46208;44.634;10.492;2022-08-19T06:10:57;0.22;;;0.22;;
60368;SDS011;46208;44.634;10.492;2022-08-19T06:14:05;0.10;;;0.10;;
60368;SDS011;46208;44.634;10.492;2022-08-19T06:17:13;0.50;;;0.38;;
60368;SDS011;46208;44.634;10.492;2022-08-19T06:20:17;0.22;;;0.22;;
60368;SDS011;46208;44.634;10.492;2022-08-19T06:23:22;1.38;;;0.15;;
60368;SDS011;46208;44.634;10.492;2022-08-19T06:26:26;0.65;;;0.40;;
60368;SDS011;46208;44.634;10.492;2022-08-19T06:29:30;0.10;;;0.10;;
60368;SDS011;46208;44.634;10.492;2022-08-19T06:32:35;0.10;;;0.10;;
60368;SDS011;46208;44.634;10.492;2022-08-19T06:35:39;0.10;;;0.10;;
60368;SDS011;46208;44.634;10.492;2022-08-19T06:38:43;0.20;;;0.20;;
60368;SDS011;46208;44.634;10.492;2022-08-19T06:41:48;0.20;;;0.20;;
60368;SDS011;46208;44.634;10.492;2022-08-19T06:44:54;0.10;;;0.10;;
60368;SDS011;46208;44.634;10.492;2022-08-19T06:47:57;0.10;;;0.10;;
60368;SDS011;46208;44.634;10.492;2022-08-19T06:51:01;0.20;;;0.20;;
60368;SDS011;46208;44.634;10.492;2022-08-19T06:54:08;0.10;;;0.10;;
60368;SDS011;46208;44.634;10.492;2022-08-19T06:57:13;0.20;;;0.20;;
60368;SDS011;46208;44.634;10.492;2022-08-19T07:00:18;0.20;;;0.20;;
60368;SDS011;46208;44.634;10.492;2022-08-19T07:03:22;1.65;;;0.20;;
60368;SDS011;46208;44.634;10.492;2022-08-19T07:06:25;0.10;;;0.10;;
60368;SDS011;46208;44.634;10.492;2022-08-19T07:09:29;0.10;;;0.10;;
60368;SDS011;46208;44.634;10.492;2022-08-19T07:12:33;0.20;;;0.20;;
60368;SDS011;46208;44.634;10.492;2022-08-19T07:15:37;0.25;;;0.25;;
60368;SDS011;46208;44.634;10.492;2022-08-19T07:18:41;0.10;;;0.10;;
60368;SDS011;46208;44.634;10.492;2022-08-19T07:21:46;0.20;;;0.20;;
60368;SDS011;46208;44.634;10.492;2022-08-19T07:24:55;0.20;;;0.20;;
60368;SDS011;46208;44.634;10.492;2022-08-19T07:27:59;0.10;;;0.10;;
60368;SDS011;46208;44.634;10.492;2022-08-19T07:31:03;0.25;;;0.20;;
60368;SDS011;46208;44.634;10.492;2022-08-19T07:34:08;0.30;;;0.30;;
60368;SDS011;46208;44.634;10.492;2022-08-19T07:37:13;0.05;;;0.05;;
60368;SDS011;46208;44.634;10.492;2022-08-19T07:40:17;0.10;;;0.10;;
60368;SDS011;46208;44.634;10.492;2022-08-19T08:47:54;0.73;;;0.40;;
60368;SDS011;46208;44.634;10.492;2022-08-19T08:51:00;0.20;;;0.20;;
60368;SDS011;46208;44.634;10.492;2022-08-19T08:54:08;0.20;;;0.20;;
60368;SDS011;46208;44.634;10.492;2022-08-19T08:57:19;0.20;;;0.20;;
60368;SDS011;46208;44.634;10.492;2022-08-19T09:00:29;0.17;;;0.17;;
60368;SDS011;46208;44.634;10.492;2022-08-19T09:03:36;0.50;;;0.30;;
60368;SDS011;46208;44.634;10.492;2022-08-19T09:16:35;0.20;;;0.20;;
60368;SDS011;46208;44.634;10.492;2022-08-19T09:19:48;0.30;;;0.30;;
60368;SDS011;46208;44.634;10.492;2022-08-19T09:22:54;0.20;;;0.10;;
60368;SDS011;46208;44.634;10.492;2022-08-19T09:25:58;0.28;;;0.25;;
60368;SDS011;46208;44.634;10.492;2022-08-19T09:29:02;0.30;;;0.30;;
60368;SDS011;46208;44.634;10.492;2022-08-19T09:32:08;0.47;;;0.20;;
60368;SDS011;46208;44.634;10.492;2022-08-19T09:35:12;0.65;;;0.30;;
60368;SDS011;46208;44.634;10.492;2022-08-19T09:38:17;0.22;;;0.22;;
60368;SDS011;46208;44.634;10.492;2022-08-19T09:41:21;0.32;;;0.30;;
60368;SDS011;46208;44.634;10.492;2022-08-19T09:44:26;0.98;;;0.20;;
60368;SDS011;46208;44.634;10.492;2022-08-19T09:47:30;0.22;;;0.17;;
60368;SDS011;46208;44.634;10.492;2022-08-19T09:50:35;0.20;;;0.20;;
60368;SDS011;46208;44.634;10.492;2022-08-19T09:53:42;0.20;;;0.20;;
60368;SDS011;46208;44.634;10.492;2022-08-19T09:56:46;0.22;;;0.22;;
60368;SDS011;46208;44.634;10.492;2022-08-19T09:59:50;2.80;;;1.30;;
60368;SDS011;46208;44.634;10.492;2022-08-19T10:02:54;1.77;;;1.00;;
60368;SDS011;46208;44.634;10.492;2022-08-19T10:05:59;0.10;;;0.10;;
60368;SDS011;46208;44.634;10.492;2022-08-19T10:09:04;0.10;;;0.10;;
60368;SDS011;46208;44.634;10.492;2022-08-19T10:12:09;0.30;;;0.30;;
60368;SDS011;46208;44.634;10.492;2022-08-19T10:15:12;0.20;;;0.20;;
60368;SDS011;46208;44.634;10.492;2022-08-19T10:18:17;0.20;;;0.20;;
60368;SDS011;46208;44.634;10.492;2022-08-19T10:21:24;0.65;;;0.38;;
60368;SDS011;46208;44.634;10.492;2022-08-19T10:24:30;0.13;;;0.13;;
60368;SDS011;46208;44.634;10.492;2022-08-19T10:27:34;0.88;;;0.32;;
60368;SDS011;46208;44.634;10.492;2022-08-19T10:30:38;0.50;;;0.50;;
60368;SDS011;46208;44.634;10.492;2022-08-19T10:33:43;0.52;;;0.25;;
60368;SDS011;46208;44.634;10.492;2022-08-19T10:36:47;0.20;;;0.20;;
60368;SDS011;46208;44.634;10.492;2022-08-19T10:39:50;0.20;;;0.20;;
60368;SDS011;46208;44.634;10.492;2022-08-19T10:42:54;0.50;;;0.50;;
60368;SDS011;46208;44.634;10.492;2022-08-19T10:45:58;0.25;;;0.25;;
60368;SDS011;46208;44.634;10.492;2022-08-19T10:49:03;0.20;;;0.20;;
60368;SDS011;46208;44.634;10.492;2022-08-19T10:52:08;0.13;;;0.13;;
60368;SDS011;46208;44.634;10.492;2022-08-19T10:55:30;0.20;;;0.20;;
60368;SDS011;46208;44.634;10.492;2022-08-19T10:58:52;0.38;;;0.20;;
60368;SDS011;46208;44.634;10.492;2022-08-19T11:02:00;0.20;;;0.20;;
60368;SDS011;46208;44.634;10.492;2022-08-19T11:05:05;1.17;;;0.40;;
60368;SDS011;46208;44.634;10.492;2022-08-19T11:08:09;0.47;;;0.30;;
60368;SDS011;46208;44.634;10.492;2022-08-19T11:11:15;0.38;;;0.38;;
60368;SDS011;46208;44.634;10.492;2022-08-19T11:14:19;0.32;;;0.32;;
60368;SDS011;46208;44.634;10.492;2022-08-19T11:17:24;0.30;;;0.30;;
60368;SDS011;46208;44.634;10.492;2022-08-19T11:20:28;0.20;;;0.20;;
60368;SDS011;46208;44.634;10.492;2022-08-19T11:23:33;0.20;;;0.20;;
60368;SDS011;46208;44.634;10.492;2022-08-19T11:26:38;0.20;;;0.20;;
60368;SDS011;46208;44.634;10.492;2022-08-19T11:29:42;0.73;;;0.40;;
60368;SDS011;46208;44.634;10.492;2022-08-19T11:32:46;0.30;;;0.30;;
60368;SDS011;46208;44.634;10.492;2022-08-19T11:35:51;0.30;;;0.30;;
60368;SDS011;46208;44.634;10.492;2022-08-19T11:38:54;1.10;;;0.25;;
60368;SDS011;46208;44.634;10.492;2022-08-19T11:41:59;0.20;;;0.20;;
60368;SDS011;46208;44.634;10.492;2022-08-19T11:45:04;0.40;;;0.30;;
60368;SDS011;46208;44.634;10.492;2022-08-19T11:48:09;1.30;;;0.50;;
60368;SDS011;46208;44.634;10.492;2022-08-19T11:51:14;0.20;;;0.20;;
60368;SDS011;46208;44.634;10.492;2022-08-19T11:54:20;0.30;;;0.30;;
60368;SDS011;46208;44.634;10.492;2022-08-19T11:57:24;0.28;;;0.28;;
60368;SDS011;46208;44.634;10.492;2022-08-19T12:00:28;2.47;;;0.38;;
60368;SDS011;46208;44.634;10.492;2022-08-19T12:03:32;0.25;;;0.20;;
60368;SDS011;46208;44.634;10.492;2022-08-19T12:06:37;0.30;;;0.30;;
60368;SDS011;46208;44.634;10.492;2022-08-19T12:09:41;0.50;;;0.25;;
60368;SDS011;46208;44.634;10.492;2022-08-19T12:12:46;3.00;;;0.45;;
60368;SDS011;46208;44.634;10.492;2022-08-19T12:15:50;0.30;;;0.30;;
60368;SDS011;46208;44.634;10.492;2022-08-19T12:18:55;1.05;;;0.63;;
60368;SDS011;46208;44.634;10.492;2022-08-19T12:21:59;0.20;;;0.20;;
60368;SDS011;46208;44.634;10.492;2022-08-19T12:25:05;0.20;;;0.20;;
60368;SDS011;46208;44.634;10.492;2022-08-19T12:28:09;0.93;;;0.93;;
60368;SDS011;46208;44.634;10.492;2022-08-19T12:31:13;0.20;;;0.20;;
60368;SDS011;46208;44.634;10.492;2022-08-19T12:34:17;0.32;;;0.32;;
60368;SDS011;46208;44.634;10.492;2022-08-19T12:37:22;1.17;;;0.63;;
60368;SDS011;46208;44.634;10.492;2022-08-19T12:40:26;0.25;;;0.20;;
60368;SDS011;46208;44.634;10.492;2022-08-19T12:43:30;0.40;;;0.40;;
60368;SDS011;46208;44.634;10.492;2022-08-19T12:46:34;0.30;;;0.30;;
60368;SDS011;46208;44.634;10.492;2022-08-19T12:49:38;0.40;;;0.40;;
60368;SDS011;46208;44.634;10.492;2022-08-19T12:52:42;0.38;;;0.20;;
60368;SDS011;46208;44.634;10.492;2022-08-19T12:55:46;0.20;;;0.20;;
60368;SDS011;46208;44.634;10.492;2022-08-19T12:58:50;0.20;;;0.20;;
60368;SDS011;46208;44.634;10.492;2022-08-19T13:01:53;0.40;;;0.30;;
60368;SDS011;46208;44.634;10.492;2022-08-19T13:04:57;0.20;;;0.20;;
60368;SDS011;46208;44.634;10.492;2022-08-19T13:08:01;0.40;;;0.40;;
60368;SDS011;46208;44.634;10.492;2022-08-19T13:11:12;0.30;;;0.30;;
60368;SDS011;46208;44.634;10.492;2022-08-19T13:14:21;0.20;;;0.20;;
60368;SDS011;46208;44.634;10.492;2022-08-19T13:17:25;0.20;;;0.20;;
60368;SDS011;46208;44.634;10.492;2022-08-19T13:20:29;0.30;;;0.30;;
60368;SDS011;46208;44.634;10.492;2022-08-19T13:23:33;0.32;;;0.30;;
60368;SDS011;46208;44.634;10.492;2022-08-19T13:26:37;0.60;;;0.60;;
60368;SDS011;46208;44.634;10.492;2022-08-19T13:29:41;0.32;;;0.30;;
60368;SDS011;46208;44.634;10.492;2022-08-19T13:33:04;4.00;;;1.95;;
60368;SDS011;46208;44.634;10.492;2022-08-19T13:36:13;0.82;;;0.47;;
60368;SDS011;46208;44.634;10.492;2022-08-19T13:39:17;0.28;;;0.28;;
60368;SDS011;46208;44.634;10.492;2022-08-19T13:42:21;0.30;;;0.30;;
60368;SDS011;46208;44.634;10.492;2022-08-19T13:45:26;1.48;;;0.43;;
60368;SDS011;46208;44.634;10.492;2022-08-19T13:48:31;0.30;;;0.30;;
60368;SDS011;46208;44.634;10.492;2022-08-19T13:51:34;0.20;;;0.20;;
60368;SDS011;46208;44.634;10.492;2022-08-19T13:54:38;0.30;;;0.30;;
60368;SDS011;46208;44.634;10.492;2022-08-19T13:57:42;0.20;;;0.20;;
60368;SDS011;46208;44.634;10.492;2022-08-19T14:00:46;0.40;;;0.25;;
60368;SDS011;46208;44.634;10.492;2022-08-19T14:03:50;0.32;;;0.32;;
60368;SDS011;46208;44.634;10.492;2022-08-19T14:06:53;0.35;;;0.22;;
60368;SDS011;46208;44.634;10.492;2022-08-19T14:09:58;0.60;;;0.50;;
60368;SDS011;46208;44.634;10.492;2022-08-19T14:13:02;0.20;;;0.20;;
60368;SDS011;46208;44.634;10.492;2022-08-19T14:16:08;0.40;;;0.30;;
60368;SDS011;46208;44.634;10.492;2022-08-19T14:19:12;0.57;;;0.38;;
60368;SDS011;46208;44.634;10.492;2022-08-19T14:22:16;0.60;;;0.40;;
60368;SDS011;46208;44.634;10.492;2022-08-19T14:25:22;0.30;;;0.30;;
60368;SDS011;46208;44.634;10.492;2022-08-19T14:28:29;0.20;;;0.20;;
60368;SDS011;46208;44.634;10.492;2022-08-19T14:31:33;0.65;;;0.30;;
60368;SDS011;46208;44.634;10.492;2022-08-19T14:34:37;1.08;;;0.38;;
60368;SDS011;46208;44.634;10.492;2022-08-19T14:37:41;0.45;;;0.30;;
60368;SDS011;46208;44.634;10.492;2022-08-19T14:40:45;0.43;;;0.30;;
60368;SDS011;46208;44.634;10.492;2022-08-19T14:43:50;0.30;;;0.30;;
60368;SDS011;46208;44.634;10.492;2022-08-19T14:46:55;0.30;;;0.30;;
60368;SDS011;46208;44.634;10.492;2022-08-19T14:49:58;0.20;;;0.20;;
60368;SDS011;46208;44.634;10.492;2022-08-19T14:53:06;0.40;;;0.40;;
60368;SDS011;46208;44.634;10.492;2022-08-19T14:56:12;0.20;;;0.20;;
60368;SDS011;46208;44.634;10.492;2022-08-19T14:59:17;0.20;;;0.20;;
60368;SDS011;46208;44.634;10.492;2022-08-19T15:02:21;0.30;;;0.30;;
60368;SDS011;46208;44.634;10.492;2022-08-19T15:05:25;0.20;;;0.20;;
60368;SDS011;46208;44.634;10.492;2022-08-19T15:08:30;0.20;;;0.20;;
60368;SDS011;46208;44.634;10.492;2022-08-19T15:11:35;1.15;;;0.40;;
60368;SDS011;46208;44.634;10.492;2022-08-19T15:14:39;0.20;;;0.20;;
60368;SDS011;46208;44.634;10.492;2022-08-19T15:17:45;0.40;;;0.40;;
60368;SDS011;46208;44.634;10.492;2022-08-19T15:20:50;0.28;;;0.28;;
60368;SDS011;46208;44.634;10.492;2022-08-19T15:23:55;0.63;;;0.28;;
60368;SDS011;46208;44.634;10.492;2022-08-19T15:27:00;0.20;;;0.20;;
60368;SDS011;46208;44.634;10.492;2022-08-19T15:30:05;0.30;;;0.30;;
60368;SDS011;46208;44.634;10.492;2022-08-19T15:33:10;0.30;;;0.30;;
60368;SDS011;46208;44.634;10.492;2022-08-19T15:36:17;0.30;;;0.30;;
60368;SDS011;46208;44.634;10.492;2022-08-19T15:39:21;1.02;;;0.40;;
60368;SDS011;46208;44.634;10.492;2022-08-19T15:42:25;0.20;;;0.20;;
60368;SDS011;46208;44.634;10.492;2022-08-19T15:45:29;0.30;;;0.30;;
60368;SDS011;46208;44.634;10.492;2022-08-19T15:48:36;0.95;;;0.22;;
60368;SDS011;46208;44.634;10.492;2022-08-19T15:51:40;1.48;;;0.35;;
60368;SDS011;46208;44.634;10.492;2022-08-19T15:54:45;0.30;;;0.28;;
60368;SDS011;46208;44.634;10.492;2022-08-19T15:57:49;0.75;;;0.40;;
60368;SDS011;46208;44.634;10.492;2022-08-19T16:01:11;0.22;;;0.22;;
60368;SDS011;46208;44.634;10.492;2022-08-19T16:04:33;0.20;;;0.20;;
60368;SDS011;46208;44.634;10.492;2022-08-19T16:07:55;0.30;;;0.30;;
60368;SDS011;46208;44.634;10.492;2022-08-19T16:10:59;0.20;;;0.20;;
60368;SDS011;46208;44.634;10.492;2022-08-19T16:14:03;0.38;;;0.38;;
60368;SDS011;46208;44.634;10.492;2022-08-19T16:17:10;0.27;;;0.27;;
60368;SDS011;46208;44.634;10.492;2022-08-19T16:20:14;0.30;;;0.30;;
60368;SDS011;46208;44.634;10.492;2022-08-19T16:23:19;0.20;;;0.20;;
60368;SDS011;46208;44.634;10.492;2022-08-19T16:26:22;0.57;;;0.40;;
60368;SDS011;46208;44.634;10.492;2022-08-19T16:29:31;0.30;;;0.30;;
60368;SDS011;46208;44.634;10.492;2022-08-19T16:32:41;0.40;;;0.40;;
60368;SDS011;46208;44.634;10.492;2022-08-19T16:35:46;0.82;;;0.35;;
60368;SDS011;46208;44.634;10.492;2022-08-19T16:38:50;0.28;;;0.28;;
60368;SDS011;46208;44.634;10.492;2022-08-19T16:41:54;0.63;;;0.30;;
60368;SDS011;46208;44.634;10.492;2022-08-19T16:44:58;1.45;;;0.80;;
60368;SDS011;46208;44.634;10.492;2022-08-19T16:48:02;0.40;;;0.30;;
60368;SDS011;46208;44.634;10.492;2022-08-19T16:51:06;0.30;;;0.30;;
60368;SDS011;46208;44.634;10.492;2022-08-19T16:54:11;1.55;;;0.32;;
60368;SDS011;46208;44.634;10.492;2022-08-19T16:57:15;0.32;;;0.30;;
60368;SDS011;46208;44.634;10.492;2022-08-19T17:00:19;0.40;;;0.40;;
60368;SDS011;46208;44.634;10.492;2022-08-19T17:03:23;0.20;;;0.20;;
60368;SDS011;46208;44.634;10.492;2022-08-19T17:06:28;0.77;;;0.20;;
60368;SDS011;46208;44.634;10.492;2022-08-19T17:09:32;0.40;;;0.40;;
60368;SDS011;46208;44.634;10.492;2022-08-19T17:12:36;0.43;;;0.43;;
60368;SDS011;46208;44.634;10.492;2022-08-19T17:15:40;0.57;;;0.57;;
60368;SDS011;46208;44.634;10.492;2022-08-19T17:18:45;0.30;;;0.28;;
60368;SDS011;46208;44.634;10.492;2022-08-19T17:21:49;0.20;;;0.20;;
60368;SDS011;46208;44.634;10.492;2022-08-19T17:24:53;0.50;;;0.30;;
60368;SDS011;46208;44.634;10.492;2022-08-19T17:27:57;0.20;;;0.20;;
60368;SDS011;46208;44.634;10.492;2022-08-19T17:31:02;0.38;;;0.30;;
60368;SDS011;46208;44.634;10.492;2022-08-19T17:34:06;0.40;;;0.30;;
60368;SDS011;46208;44.634;10.492;2022-08-19T17:37:11;0.30;;;0.22;;
60368;SDS011;46208;44.634;10.492;2022-08-19T17:40:14;1.95;;;0.40;;
60368;SDS011;46208;44.634;10.492;2022-08-19T17:43:18;0.20;;;0.20;;
60368;SDS011;46208;44.634;10.492;2022-08-19T17:46:22;0.40;;;0.40;;
60368;SDS011;46208;44.634;10.492;2022-08-19T17:49:26;0.47;;;0.45;;
60368;SDS011;46208;44.634;10.492;2022-08-19T17:52:29;0.35;;;0.35;;
60368;SDS011;46208;44.634;10.492;2022-08-19T17:55:33;0.40;;;0.35;;
60368;SDS011;46208;44.634;10.492;2022-08-19T17:58:37;0.50;;;0.50;;
60368;SDS011;46208;44.634;10.492;2022-08-19T18:01:43;0.50;;;0.50;;
60368;SDS011;46208;44.634;10.492;2022-08-19T18:04:47;1.05;;;0.57;;
60368;SDS011;46208;44.634;10.492;2022-08-19T18:07:52;0.45;;;0.45;;
60368;SDS011;46208;44.634;10.492;2022-08-19T18:10:55;0.38;;;0.38;;
60368;SDS011;46208;44.634;10.492;2022-08-19T18:13:59;0.35;;;0.35;;
60368;SDS011;46208;44.634;10.492;2022-08-19T18:17:07;0.28;;;0.28;;
60368;SDS011;46208;44.634;10.492;2022-08-19T18:20:14;0.30;;;0.30;;
60368;SDS011;46208;44.634;10.492;2022-08-19T18:23:18;0.63;;;0.63;;
60368;SDS011;46208;44.634;10.492;2022-08-19T18:26:22;0.65;;;0.43;;
60368;SDS011;46208;44.634;10.492;2022-08-19T18:29:25;0.30;;;0.30;;
60368;SDS011;46208;44.634;10.492;2022-08-19T18:32:30;0.57;;;0.47;;
60368;SDS011;46208;44.634;10.492;2022-08-19T18:35:37;0.52;;;0.20;;
60368;SDS011;46208;44.634;10.492;2022-08-19T18:38:41;0.20;;;0.20;;
60368;SDS011;46208;44.634;10.492;2022-08-19T18:42:03;1.30;;;0.40;;
60368;SDS011;46208;44.634;10.492;2022-08-19T18:45:25;0.40;;;0.40;;
60368;SDS011;46208;44.634;10.492;2022-08-19T18:48:48;0.25;;;0.25;;
60368;SDS011;46208;44.634;10.492;2022-08-19T18:52:07;0.50;;;0.30;;
60368;SDS011;46208;44.634;10.492;2022-08-19T18:55:11;0.60;;;0.60;;
60368;SDS011;46208;44.634;10.492;2022-08-19T18:58:14;0.40;;;0.40;;
60368;SDS011;46208;44.634;10.492;2022-08-19T19:01:20;2.25;;;0.40;;
60368;SDS011;46208;44.634;10.492;2022-08-19T19:04:29;3.17;;;0.60;;
60368;SDS011;46208;44.634;10.492;2022-08-19T19:07:37;0.65;;;0.35;;
60368;SDS011;46208;44.634;10.492;2022-08-19T19:10:42;0.22;;;0.22;;
60368;SDS011;46208;44.634;10.492;2022-08-19T19:13:45;0.38;;;0.22;;
60368;SDS011;46208;44.634;10.492;2022-08-19T19:16:50;0.40;;;0.40;;
60368;SDS011;46208;44.634;10.492;2022-08-19T19:19:54;0.60;;;0.30;;
60368;SDS011;46208;44.634;10.492;2022-08-19T19:22:58;0.32;;;0.32;;
60368;SDS011;46208;44.634;10.492;2022-08-19T19:26:02;0.50;;;0.38;;
60368;SDS011;46208;44.634;10.492;2022-08-19T19:29:05;1.55;;;0.57;;
60368;SDS011;46208;44.634;10.492;2022-08-19T19:32:14;2.15;;;0.30;;
60368;SDS011;46208;44.634;10.492;2022-08-19T19:35:22;0.25;;;0.25;;